Time;durP1;ratioP1;P1;durP2;ratioP2;P2;SDS_P1;SDS_P2;PMS_P1;PMS_P2;Temp;Humidity;BMP_temperature;BMP_pressure;BME280_temperature;BME280_humidity;BME280_pressure;Samples;Min_cycle;Max_cycle;Signal;HPM_P1;HPM_P2
2023/01/30 00:01:27;;;;;;;59.53;35.00;;;6.40;98.70;;;;;;5048364;28;20036;-73
2023/01/30 00:03:53;;;;;;;58.50;35.60;;;6.50;98.60;;;;;;5032519;28;20086;-73
2023/01/30 00:06:21;;;;;;;63.85;39.85;;;6.50;98.60;;;;;;5046406;28;20136;-73
2023/01/30 00:08:46;;;;;;;52.67;32.22;;;6.50;98.70;;;;;;5051618;28;20033;-73
2023/01/30 00:11:15;;;;;;;65.30;40.60;;;6.50;98.70;;;;;;5050301;28;20470;-72
2023/01/30 00:13:41;;;;;;;63.25;40.25;;;6.50;98.80;;;;;;5049843;28;20025;-72
2023/01/30 00:16:11;;;;;;;55.38;35.65;;;6.50;99.00;;;;;;5050622;28;20107;-72
2023/01/30 00:18:38;;;;;;;55.57;34.73;;;6.50;98.90;;;;;;5051640;28;20029;-72
2023/01/30 00:21:07;;;;;;;60.83;37.53;;;6.50;98.90;;;;;;5050322;28;20290;-73
2023/01/30 00:23:34;;;;;;;57.05;35.20;;;6.50;98.80;;;;;;5054173;28;20021;-73
2023/01/30 00:26:00;;;;;;;64.00;38.90;;;6.50;98.70;;;;;;5050341;28;20402;-73
2023/01/30 00:28:27;;;;;;;68.90;40.60;;;6.50;98.70;;;;;;5050319;28;20033;-73
2023/01/30 00:30:55;;;;;;;67.43;42.78;;;6.50;98.90;;;;;;5051759;28;20063;-72
2023/01/30 00:33:22;;;;;;;65.10;38.58;;;6.60;98.90;;;;;;5050857;28;20080;-72
2023/01/30 00:35:50;;;;;;;60.45;37.08;;;6.60;98.80;;;;;;5050932;28;20036;-73
2023/01/30 00:38:16;;;;;;;74.00;43.15;;;6.60;98.90;;;;;;5049341;28;20538;-72
2023/01/30 00:40:42;;;;;;;69.15;43.47;;;6.60;99.10;;;;;;5068080;28;20029;-72
2023/01/30 00:48:40;;;;;;;61.75;39.08;;;6.60;98.90;;;;;;5051636;28;20059;-73
2023/01/30 00:51:05;;;;;;;61.38;38.80;;;6.60;99.00;;;;;;5050841;28;20021;-72
2023/01/30 00:53:31;;;;;;;63.05;36.72;;;6.60;99.00;;;;;;5040516;28;20445;-73
2023/01/30 00:55:56;;;;;;;70.68;41.92;;;6.70;99.00;;;;;;5032839;28;20025;-73
2023/01/30 00:58:23;;;;;;;61.08;39.17;;;6.70;99.20;;;;;;5047439;28;20025;-73
2023/01/30 01:00:50;;;;;;;60.25;39.50;;;6.60;99.40;;;;;;5051001;28;20606;-72
2023/01/30 01:03:16;;;;;;;64.53;42.72;;;6.70;99.50;;;;;;5050581;28;20023;-73
2023/01/30 01:05:42;;;;;;;64.22;38.53;;;6.70;99.40;;;;;;5049911;28;20021;-73
2023/01/30 01:08:08;;;;;;;60.75;37.20;;;6.70;99.40;;;;;;5049651;28;20524;-74
2023/01/30 01:10:34;;;;;;;68.43;41.25;;;6.80;99.40;;;;;;5049404;28;20497;-74
2023/01/30 01:13:01;;;;;;;64.53;43.35;;;6.80;99.50;;;;;;5048702;28;20021;-73
2023/01/30 01:15:27;;;;;;;72.97;46.10;;;6.80;99.50;;;;;;5057898;28;20067;-73
2023/01/30 01:17:53;;;;;;;48.47;31.02;;;6.80;99.70;;;;;;5062551;28;20070;-74
2023/01/30 01:20:20;;;;;;;63.00;37.25;;;6.90;99.60;;;;;;5050243;28;20108;-72
2023/01/30 01:22:49;;;;;;;64.18;40.65;;;6.90;99.60;;;;;;5050578;28;20933;-72
2023/01/30 01:25:15;;;;;;;64.43;42.05;;;6.90;99.80;;;;;;5050066;28;20063;-73
2023/01/30 01:27:41;;;;;;;67.68;44.28;;;6.90;99.70;;;;;;5036683;28;20029;-73
2023/01/30 01:30:07;;;;;;;53.55;36.47;;;7.00;99.70;;;;;;5036266;28;20018;-73
2023/01/30 01:32:33;;;;;;;61.42;40.85;;;7.00;99.70;;;;;;5049895;28;20068;-73
2023/01/30 01:34:59;;;;;;;58.22;38.83;;;7.00;99.60;;;;;;5049733;28;20044;-73
2023/01/30 01:37:25;;;;;;;71.18;47.85;;;7.00;99.70;;;;;;5050110;28;20058;-72
2023/01/30 01:42:37;;;;;;;65.28;41.40;;;7.00;99.90;;;;;;5050071;28;20052;-72
2023/01/30 01:45:11;;;;;;;64.85;42.20;;;7.00;99.90;;;;;;5048198;28;20025;-72
2023/01/30 01:47:57;;;;;;;66.90;45.83;;;7.00;99.90;;;;;;5065253;28;20041;-72
2023/01/30 01:50:44;;;;;;;62.42;41.10;;;7.00;99.90;;;;;;5048993;28;20074;-73
2023/01/30 01:53:12;;;;;;;51.42;35.38;;;7.00;99.90;;;;;;5049573;28;20502;-72
2023/01/30 01:55:40;;;;;;;71.72;42.78;;;7.00;99.90;;;;;;5049494;28;20071;-74
2023/01/30 01:58:14;;;;;;;61.08;39.03;;;7.00;99.90;;;;;;5049811;28;20100;-72
2023/01/30 02:00:40;;;;;;;55.40;36.50;;;7.10;99.90;;;;;;5049360;28;20017;-72
2023/01/30 02:03:08;;;;;;;62.55;40.10;;;7.10;99.90;;;;;;5050541;28;20083;-72
2023/01/30 02:05:37;;;;;;;59.63;38.80;;;7.10;99.90;;;;;;5049369;28;20028;-71
2023/01/30 02:08:08;;;;;;;63.88;38.88;;;7.10;99.90;;;;;;5029472;28;20021;-73
2023/01/30 02:10:44;;;;;;;62.45;38.38;;;7.10;99.90;;;;;;5047588;28;20029;-72
2023/01/30 02:13:09;;;;;;;60.42;39.33;;;7.10;99.90;;;;;;5047339;28;20105;-72
2023/01/30 02:15:35;;;;;;;64.38;40.72;;;7.10;99.90;;;;;;5049430;28;20486;-72
2023/01/30 02:18:01;;;;;;;57.95;36.67;;;7.10;99.90;;;;;;5052518;28;20103;-72
2023/01/30 02:20:53;;;;;;;53.78;36.13;;;7.10;99.90;;;;;;5057200;28;20028;-72
2023/01/30 02:23:34;;;;;;;54.22;35.55;;;7.10;99.90;;;;;;5049605;28;20076;-72
2023/01/30 02:26:16;;;;;;;59.42;34.53;;;7.20;99.90;;;;;;5048689;28;20098;-73
2023/01/30 02:28:56;;;;;;;59.10;37.33;;;7.20;99.90;;;;;;5036611;28;20470;-72
2023/01/30 02:31:41;;;;;;;58.72;37.28;;;7.30;99.90;;;;;;5047165;28;20075;-72
2023/01/30 02:34:25;;;;;;;44.60;29.45;;;7.30;99.90;;;;;;5032487;28;20037;-71
2023/01/30 02:37:37;;;;;;;48.38;29.80;;;7.30;99.90;;;;;;5047284;28;20784;-72
2023/01/30 02:40:14;;;;;;;48.50;30.45;;;7.30;99.90;;;;;;5048626;28;20017;-72
2023/01/30 02:43:00;;;;;;;38.50;25.58;;;7.40;99.90;;;;;;5049175;28;20616;-73
2023/01/30 02:45:42;;;;;;;52.28;29.73;;;7.40;99.90;;;;;;5031821;28;20112;-71
2023/01/30 02:48:26;;;;;;;36.92;23.75;;;7.40;99.90;;;;;;5038083;28;20017;-71
2023/01/30 02:51:00;;;;;;;32.03;20.58;;;7.50;99.90;;;;;;5048721;28;20028;-73
2023/01/30 02:53:31;;;;;;;36.83;21.45;;;7.50;99.90;;;;;;5048731;28;20112;-72
2023/01/30 02:55:57;;;;;;;28.90;18.65;;;7.60;99.90;;;;;;5063088;28;20425;-73
2023/01/30 02:58:25;;;;;;;37.28;24.73;;;7.60;99.90;;;;;;5049105;28;20029;-73
2023/01/30 03:01:02;;;;;;;36.30;23.45;;;7.60;99.90;;;;;;5048773;28;20024;-73
2023/01/30 03:03:59;;;;;;;27.08;17.67;;;7.60;99.90;;;;;;5047219;28;20018;-72
2023/01/30 03:06:46;;;;;;;34.50;19.98;;;7.60;99.90;;;;;;5048134;28;20033;-72
2023/01/30 03:09:20;;;;;;;31.63;19.23;;;7.60;99.90;;;;;;5047393;28;20048;-71
2023/01/30 03:11:57;;;;;;;27.05;16.52;;;7.60;99.90;;;;;;5048523;28;20075;-72
2023/01/30 03:14:29;;;;;;;23.98;15.43;;;7.70;99.90;;;;;;5052429;28;20028;-72
2023/01/30 03:16:58;;;;;;;29.30;19.90;;;7.70;99.90;;;;;;5060814;28;20574;-72
2023/01/30 03:19:25;;;;;;;35.40;20.10;;;7.70;99.90;;;;;;5048119;28;20025;-72
2023/01/30 03:21:51;;;;;;;28.48;17.25;;;7.70;99.90;;;;;;5047647;28;20429;-71
2023/01/30 03:24:17;;;;;;;33.20;19.17;;;7.70;99.90;;;;;;5048470;28;20021;-71
2023/01/30 03:26:47;;;;;;;23.58;15.02;;;7.70;99.90;;;;;;5048506;28;20073;-71
2023/01/30 03:29:14;;;;;;;21.00;13.23;;;7.80;99.90;;;;;;5048181;28;20029;-71
2023/01/30 03:31:40;;;;;;;30.38;13.70;;;7.80;99.90;;;;;;5048362;28;20846;-71
2023/01/30 03:34:06;;;;;;;19.95;12.50;;;7.80;99.90;;;;;;5041066;28;20052;-71
2023/01/30 03:36:31;;;;;;;19.35;12.65;;;7.80;99.90;;;;;;5052222;28;20087;-72
2023/01/30 03:38:57;;;;;;;23.90;15.52;;;7.80;99.90;;;;;;5051813;28;20028;-71
2023/01/30 03:41:23;;;;;;;31.13;15.52;;;7.90;99.90;;;;;;5052066;28;20025;-72
2023/01/30 03:43:48;;;;;;;33.85;14.75;;;7.90;99.90;;;;;;5060760;28;20039;-71
2023/01/30 03:46:14;;;;;;;23.20;13.63;;;7.90;99.90;;;;;;5052840;28;20021;-72
2023/01/30 03:48:40;;;;;;;21.45;13.85;;;7.90;99.90;;;;;;5058274;28;20028;-71
2023/01/30 03:51:05;;;;;;;25.23;14.77;;;7.90;99.90;;;;;;5063973;28;20060;-72
2023/01/30 03:53:31;;;;;;;21.08;11.65;;;7.90;99.90;;;;;;5059917;28;20103;-72
2023/01/30 03:55:56;;;;;;;23.83;13.48;;;7.90;99.90;;;;;;5050439;28;20029;-71
2023/01/30 03:58:22;;;;;;;21.38;11.98;;;7.90;99.90;;;;;;5051836;28;20020;-71
2023/01/30 04:00:47;;;;;;;22.40;14.38;;;7.90;99.90;;;;;;5051019;28;20029;-72
2023/01/30 04:03:14;;;;;;;25.58;13.15;;;7.90;99.90;;;;;;5051482;28;20108;-72
2023/01/30 04:05:42;;;;;;;24.77;14.60;;;8.00;99.90;;;;;;5051601;28;20083;-71
2023/01/30 04:08:08;;;;;;;20.38;12.20;;;8.00;99.90;;;;;;5051666;28;20020;-72
2023/01/30 04:10:34;;;;;;;30.35;15.70;;;8.00;99.90;;;;;;5051841;28;20025;-71
2023/01/30 04:12:59;;;;;;;21.25;10.95;;;8.00;99.90;;;;;;5051604;28;20037;-71
2023/01/30 04:15:25;;;;;;;20.75;11.25;;;8.00;99.90;;;;;;5051537;28;20112;-71
2023/01/30 04:17:50;;;;;;;29.92;16.35;;;8.00;99.90;;;;;;5051542;28;20025;-73
2023/01/30 04:20:16;;;;;;;31.05;16.30;;;8.00;99.90;;;;;;5049043;28;20112;-72
2023/01/30 04:22:42;;;;;;;23.95;13.93;;;8.10;99.90;;;;;;5051060;28;20658;-72
2023/01/30 04:25:08;;;;;;;24.92;14.13;;;8.10;99.90;;;;;;5050851;28;20124;-70
2023/01/30 04:27:33;;;;;;;21.60;11.88;;;8.10;99.90;;;;;;5049206;28;20075;-73
2023/01/30 04:29:59;;;;;;;21.63;13.18;;;8.10;99.90;;;;;;5050373;28;20029;-72
2023/01/30 04:32:25;;;;;;;26.65;12.23;;;8.10;99.90;;;;;;5051294;28;20025;-71
2023/01/30 04:34:51;;;;;;;26.80;12.40;;;8.20;99.90;;;;;;5050848;28;20067;-71
2023/01/30 04:37:16;;;;;;;23.90;13.55;;;8.20;99.90;;;;;;5049224;28;20052;-71
2023/01/30 04:39:42;;;;;;;32.17;16.17;;;8.10;99.90;;;;;;5048979;28;20104;-70
2023/01/30 04:42:08;;;;;;;37.17;14.27;;;8.20;99.90;;;;;;5053215;28;20036;-70
2023/01/30 04:44:33;;;;;;;28.67;12.93;;;8.10;99.90;;;;;;5062296;28;20526;-71
2023/01/30 04:46:59;;;;;;;27.90;13.75;;;8.10;99.90;;;;;;5050523;28;20032;-70
2023/01/30 04:49:25;;;;;;;20.02;12.02;;;8.20;99.90;;;;;;5049367;28;20028;-70
2023/01/30 04:51:50;;;;;;;25.02;11.73;;;8.20;99.90;;;;;;5048233;28;20894;-70
2023/01/30 04:54:16;;;;;;;26.65;12.35;;;8.20;99.90;;;;;;5034721;28;20502;-71
2023/01/30 04:56:42;;;;;;;31.80;13.95;;;8.20;99.90;;;;;;5049421;28;20082;-71
2023/01/30 04:59:07;;;;;;;22.48;11.25;;;8.20;99.90;;;;;;5050580;28;20050;-71
2023/01/30 05:01:36;;;;;;;26.60;13.02;;;8.20;99.90;;;;;;5048769;28;20057;-71
2023/01/30 05:04:03;;;;;;;26.17;12.48;;;8.20;99.90;;;;;;5050162;28;20029;-73
2023/01/30 05:06:30;;;;;;;22.27;11.30;;;8.20;99.90;;;;;;5048568;28;20025;-71
2023/01/30 05:08:56;;;;;;;24.20;12.05;;;8.20;99.90;;;;;;5049987;28;20032;-72
2023/01/30 05:11:24;;;;;;;26.30;10.25;;;8.20;99.90;;;;;;5049009;28;20394;-70
2023/01/30 05:13:50;;;;;;;28.25;10.32;;;8.20;99.90;;;;;;5049974;28;20831;-72
2023/01/30 05:16:16;;;;;;;19.73;9.65;;;8.20;99.90;;;;;;5049442;28;20094;-71
2023/01/30 05:18:42;;;;;;;24.77;10.43;;;8.20;99.90;;;;;;5049898;28;20530;-71
2023/01/30 05:21:11;;;;;;;15.90;7.80;;;8.30;99.90;;;;;;5047046;28;20116;-71
2023/01/30 05:23:37;;;;;;;18.55;8.82;;;8.30;99.90;;;;;;5062200;28;20550;-71
2023/01/30 05:26:03;;;;;;;20.05;8.85;;;8.30;99.90;;;;;;5038805;28;20119;-71
2023/01/30 05:28:30;;;;;;;23.85;7.70;;;8.30;99.90;;;;;;5048368;28;20025;-71
2023/01/30 05:31:07;;;;;;;20.23;7.03;;;8.30;99.90;;;;;;5048483;28;20021;-71
2023/01/30 05:33:33;;;;;;;20.10;6.20;;;8.30;99.90;;;;;;5037169;28;20033;-71
2023/01/30 05:35:59;;;;;;;21.42;6.43;;;8.30;99.90;;;;;;5040833;28;21259;-72
2023/01/30 05:38:25;;;;;;;29.83;9.57;;;8.30;99.90;;;;;;5050064;28;20453;-71
2023/01/30 05:41:17;;;;;;;18.40;4.78;;;8.30;99.90;;;;;;5053331;28;21520;-71
2023/01/30 05:43:43;;;;;;;17.65;5.28;;;8.30;99.90;;;;;;5049495;28;20075;-72
2023/01/30 05:46:11;;;;;;;15.48;6.30;;;8.30;99.90;;;;;;5068678;28;20082;-71
2023/01/30 05:48:37;;;;;;;15.35;5.18;;;8.40;99.80;;;;;;5049583;28;20663;-72
2023/01/30 05:51:02;;;;;;;18.27;4.68;;;8.40;99.90;;;;;;5046848;28;20026;-72
2023/01/30 05:53:30;;;;;;;12.88;3.88;;;8.40;99.90;;;;;;5048326;28;20037;-71
2023/01/30 05:56:02;;;;;;;13.95;5.45;;;8.40;99.90;;;;;;5048712;28;20048;-71
2023/01/30 05:58:28;;;;;;;13.35;3.40;;;8.40;99.80;;;;;;5049150;28;20028;-71
2023/01/30 06:00:58;;;;;;;18.60;4.47;;;8.50;99.40;;;;;;5049687;28;20821;-71
2023/01/30 06:03:23;;;;;;;25.67;4.95;;;8.50;98.80;;;;;;5049460;28;20482;-71
2023/01/30 06:05:49;;;;;;;10.40;3.72;;;8.50;98.80;;;;;;5048696;28;20084;-71
2023/01/30 06:08:15;;;;;;;15.27;3.65;;;8.50;98.80;;;;;;5049471;28;20075;-71
2023/01/30 06:10:41;;;;;;;17.88;3.40;;;8.40;98.70;;;;;;5048985;28;20029;-72
2023/01/30 06:13:09;;;;;;;13.00;3.03;;;8.40;98.40;;;;;;5049245;28;20591;-71
2023/01/30 06:15:35;;;;;;;18.73;3.95;;;8.30;97.80;;;;;;5049684;28;20025;-72
2023/01/30 06:18:01;;;;;;;11.85;3.70;;;8.30;97.70;;;;;;5049414;28;20029;-73
2023/01/30 06:20:27;;;;;;;24.02;4.20;;;8.30;97.50;;;;;;5049137;28;20052;-72
2023/01/30 06:22:52;;;;;;;17.10;4.45;;;8.20;97.10;;;;;;5047830;28;20061;-71
2023/01/30 06:25:18;;;;;;;21.75;3.95;;;8.20;96.90;;;;;;5049111;28;20395;-72
2023/01/30 06:27:45;;;;;;;21.35;4.55;;;8.30;96.80;;;;;;5048527;28;20132;-70
2023/01/30 06:30:11;;;;;;;14.18;4.03;;;8.30;96.70;;;;;;5048814;28;20104;-72
2023/01/30 06:32:37;;;;;;;21.65;3.55;;;8.20;96.50;;;;;;5048739;28;20076;-73
2023/01/30 06:35:03;;;;;;;12.32;2.97;;;8.20;96.50;;;;;;5048430;28;20033;-72
2023/01/30 06:37:29;;;;;;;15.38;3.33;;;8.20;96.60;;;;;;5048836;28;20475;-72
2023/01/30 06:39:54;;;;;;;19.77;5.18;;;8.30;96.40;;;;;;5047008;28;20125;-72
2023/01/30 06:42:20;;;;;;;17.55;4.05;;;8.20;96.30;;;;;;5045113;28;20569;-71
2023/01/30 06:44:45;;;;;;;25.08;4.47;;;8.20;96.10;;;;;;5043461;28;20035;-72
2023/01/30 06:47:11;;;;;;;25.17;4.72;;;8.10;96.00;;;;;;5047632;28;20029;-73
2023/01/30 06:49:37;;;;;;;17.50;3.40;;;8.10;96.00;;;;;;5043805;28;20033;-73
2023/01/30 06:52:02;;;;;;;21.73;6.50;;;8.10;95.70;;;;;;5048785;28;20029;-72
2023/01/30 06:54:28;;;;;;;14.05;3.35;;;8.10;95.90;;;;;;5048989;28;20405;-73
2023/01/30 06:56:55;;;;;;;16.23;3.83;;;8.00;95.90;;;;;;5047435;28;20029;-74
2023/01/30 06:59:20;;;;;;;16.98;3.55;;;8.00;95.70;;;;;;5048737;28;20048;-72
2023/01/30 07:01:46;;;;;;;23.25;5.03;;;7.90;95.60;;;;;;5055923;28;20056;-73
2023/01/30 07:04:12;;;;;;;20.52;4.47;;;7.90;95.60;;;;;;5063323;28;20029;-71
2023/01/30 07:06:37;;;;;;;25.60;4.13;;;7.80;95.50;;;;;;5049364;28;20025;-71
2023/01/30 07:09:03;;;;;;;32.13;4.90;;;7.80;95.60;;;;;;5056894;28;20133;-72
2023/01/30 07:11:30;;;;;;;15.27;3.75;;;7.80;95.50;;;;;;5052593;28;20025;-73
2023/01/30 07:13:55;;;;;;;20.00;4.15;;;7.80;95.50;;;;;;5057590;28;20028;-72
2023/01/30 07:16:27;;;;;;;20.35;4.30;;;7.80;95.60;;;;;;5051487;28;20017;-72
2023/01/30 07:18:57;;;;;;;28.27;6.07;;;7.70;95.50;;;;;;5064779;28;20025;-73
2023/01/30 07:21:23;;;;;;;26.90;5.18;;;7.70;95.40;;;;;;5051788;28;20017;-72
2023/01/30 07:23:49;;;;;;;20.70;4.50;;;7.70;95.40;;;;;;5046802;28;20116;-72
2023/01/30 07:26:14;;;;;;;21.83;5.05;;;7.70;95.30;;;;;;5046625;28;20147;-72
2023/01/30 07:28:40;;;;;;;21.75;4.82;;;7.70;95.40;;;;;;5050636;28;20021;-72
2023/01/30 07:31:06;;;;;;;28.30;6.82;;;7.70;95.30;;;;;;5049947;28;20551;-71
2023/01/30 07:33:31;;;;;;;23.83;5.22;;;7.60;95.20;;;;;;5050778;28;20071;-72
2023/01/30 07:35:57;;;;;;;24.67;5.28;;;7.50;95.20;;;;;;5051117;28;20013;-72
2023/01/30 07:38:22;;;;;;;23.50;4.45;;;7.50;95.30;;;;;;5053196;28;20021;-73
2023/01/30 07:40:48;;;;;;;25.55;5.25;;;7.50;95.30;;;;;;5049406;28;20171;-72
2023/01/30 07:43:17;;;;;;;15.25;4.05;;;7.60;95.40;;;;;;5052453;28;20103;-73
2023/01/30 07:45:45;;;;;;;25.63;5.03;;;7.50;95.40;;;;;;5045232;28;20016;-73
2023/01/30 07:48:13;;;;;;;19.67;4.18;;;7.60;95.30;;;;;;5048669;28;20551;-71
2023/01/30 07:50:39;;;;;;;25.55;4.28;;;;;;;;;;5042504;28;20136;-71
2023/01/30 07:53:07;;;;;;;25.15;4.85;;;7.50;95.10;;;;;;5049380;28;20128;-71
2023/01/30 07:55:33;;;;;;;31.15;6.00;;;7.50;95.10;;;;;;5050560;28;20040;-72
2023/01/30 07:57:59;;;;;;;24.75;4.20;;;7.40;94.90;;;;;;5050335;28;20033;-73
2023/01/30 08:00:25;;;;;;;15.15;4.18;;;7.40;95.10;;;;;;5049453;28;20021;-71
2023/01/30 08:02:51;;;;;;;26.77;5.10;;;7.50;94.90;;;;;;5044130;28;20017;-72
2023/01/30 08:05:17;;;;;;;20.27;5.53;;;7.70;94.90;;;;;;5048567;28;20106;-71
2023/01/30 08:07:43;;;;;;;18.23;3.70;;;7.90;94.20;;;;;;5048960;28;20494;-72
2023/01/30 08:10:09;;;;;;;24.05;6.20;;;8.10;93.50;;;;;;5051156;28;20029;-72
2023/01/30 08:12:35;;;;;;;24.08;5.30;;;8.20;92.70;;;;;;5050944;28;20037;-72
2023/01/30 08:15:00;;;;;;;28.10;5.30;;;8.50;92.60;;;;;;5051847;28;20035;-73
2023/01/30 08:17:26;;;;;;;27.92;4.55;;;8.80;91.50;;;;;;5050915;28;20025;-74
2023/01/30 08:19:51;;;;;;;25.83;4.95;;;9.00;91.00;;;;;;5043402;28;20025;-73
2023/01/30 08:22:17;;;;;;;24.75;5.45;;;9.20;90.20;;;;;;5040879;28;20029;-72
2023/01/30 08:24:43;;;;;;;21.92;5.43;;;9.40;90.00;;;;;;5052296;28;20142;-71
2023/01/30 08:27:08;;;;;;;22.35;4.65;;;9.60;88.30;;;;;;5050505;28;20486;-72
2023/01/30 08:29:34;;;;;;;22.58;3.53;;;9.70;86.70;;;;;;5051031;28;20389;-71
2023/01/30 08:32:00;;;;;;;30.88;6.40;;;9.80;86.90;;;;;;5047200;28;20020;-71
2023/01/30 08:34:26;;;;;;;18.10;3.40;;;10.00;86.30;;;;;;5048204;28;20063;-71
2023/01/30 08:36:52;;;;;;;21.35;4.60;;;10.20;85.20;;;;;;5049659;28;20032;-74
2023/01/30 08:39:18;;;;;;;17.55;4.00;;;10.30;84.00;;;;;;5040828;28;20025;-75
2023/01/30 08:41:44;;;;;;;27.25;4.40;;;10.30;84.60;;;;;;5043231;28;20055;-73
2023/01/30 08:44:10;;;;;;;21.15;4.47;;;10.40;83.80;;;;;;5042463;28;20049;-72
2023/01/30 08:46:37;;;;;;;17.17;3.55;;;10.50;81.60;;;;;;5038227;28;20446;-71
2023/01/30 08:49:04;;;;;;;22.63;4.18;;;10.50;81.20;;;;;;5035690;28;20029;-72
2023/01/30 08:51:29;;;;;;;19.63;3.22;;;10.60;84.10;;;;;;5049786;28;20076;-73
2023/01/30 08:53:55;;;;;;;19.00;3.88;;;10.70;81.30;;;;;;5048010;28;20073;-72
2023/01/30 08:56:21;;;;;;;20.88;4.75;;;10.80;82.30;;;;;;5047682;28;20021;-74
2023/01/30 08:58:48;;;;;;;19.40;4.28;;;10.90;82.50;;;;;;5048192;28;20952;-75
2023/01/30 09:01:14;;;;;;;20.55;3.60;;;11.00;80.30;;;;;;5048145;28;20395;-73
2023/01/30 09:03:40;;;;;;;18.33;3.85;;;11.00;82.50;;;;;;5048559;28;20469;-73
2023/01/30 09:06:06;;;;;;;20.65;3.55;;;11.00;82.10;;;;;;5048380;28;20032;-74
2023/01/30 09:08:32;;;;;;;21.88;4.68;;;11.00;79.10;;;;;;5048654;28;20104;-74
2023/01/30 09:11:03;;;;;;;24.02;4.72;;;11.00;80.20;;;;;;5049215;28;20100;-72
2023/01/30 09:13:29;;;;;;;17.33;4.13;;;10.90;78.80;;;;;;5046598;28;20532;-74
2023/01/30 09:15:57;;;;;;;19.27;4.47;;;10.80;79.80;;;;;;5045203;28;20040;-74
2023/01/30 09:18:23;;;;;;;25.75;5.07;;;10.60;81.20;;;;;;5039391;28;20022;-74
2023/01/30 09:20:49;;;;;;;41.63;13.98;;;10.40;83.90;;;;;;5046753;28;20572;-73
2023/01/30 09:23:14;;;;;;;23.35;4.78;;;10.20;85.00;;;;;;5027820;28;20108;-72
2023/01/30 09:25:40;;;;;;;19.80;4.10;;;9.90;84.50;;;;;;5046341;28;20056;-74
2023/01/30 09:28:06;;;;;;;25.38;5.35;;;9.70;83.00;;;;;;5047744;28;20497;-74
2023/01/30 09:30:32;;;;;;;18.15;4.22;;;9.50;86.40;;;;;;5052867;28;20029;-73
2023/01/30 09:32:58;;;;;;;25.92;5.03;;;9.40;87.50;;;;;;5060210;28;20444;-72
2023/01/30 09:35:23;;;;;;;21.33;3.83;;;9.30;86.20;;;;;;5047909;28;20033;-72
2023/01/30 09:37:51;;;;;;;19.98;3.55;;;9.20;86.30;;;;;;5046895;28;20056;-73
2023/01/30 09:40:25;;;;;;;25.10;4.75;;;9.20;87.50;;;;;;5046926;28;20168;-74
2023/01/30 09:43:11;;;;;;;20.60;4.72;;;9.10;88.40;;;;;;5052878;28;20032;-71
2023/01/30 09:45:42;;;;;;;22.40;3.72;;;9.20;89.20;;;;;;5040350;28;20394;-73
2023/01/30 09:48:21;;;;;;;25.95;4.72;;;9.10;90.20;;;;;;5048532;28;20824;-73
2023/01/30 09:50:49;;;;;;;21.00;5.13;;;9.00;89.20;;;;;;5046893;28;20029;-73
2023/01/30 09:53:47;;;;;;;22.73;5.32;;;9.00;89.10;;;;;;5046638;28;20112;-72
2023/01/30 09:56:12;;;;;;;26.67;4.28;;;8.90;89.40;;;;;;5046571;28;20101;-73
2023/01/30 09:58:54;;;;;;;26.05;4.88;;;9.00;90.70;;;;;;5039205;28;20449;-73
2023/01/30 10:01:29;;;;;;;23.95;5.38;;;9.00;90.60;;;;;;5041680;28;20025;-73
2023/01/30 10:04:24;;;;;;;24.55;3.88;;;9.00;90.70;;;;;;5044036;28;20025;-73
2023/01/30 10:06:55;;;;;;;22.02;3.50;;;9.10;91.80;;;;;;5047628;28;20537;-73
2023/01/30 10:09:36;;;;;;;23.98;4.40;;;9.00;90.10;;;;;;5047609;28;20440;-73
2023/01/30 10:12:23;;;;;;;18.08;4.18;;;9.10;90.20;;;;;;5046648;28;20178;-74
2023/01/30 10:15:21;;;;;;;20.40;4.07;;;9.10;90.00;;;;;;5046301;28;20036;-73
2023/01/30 10:18:05;;;;;;;25.23;5.75;;;9.10;90.40;;;;;;5045594;28;20025;-73
2023/01/30 10:20:40;;;;;;;16.42;3.20;;;9.30;90.30;;;;;;5055889;28;20111;-72
2023/01/30 10:23:31;;;;;;;15.55;3.75;;;9.30;91.60;;;;;;5047507;28;20402;-74
2023/01/30 10:26:05;;;;;;;23.33;4.18;;;9.30;90.50;;;;;;5047337;28;20127;-72
2023/01/30 10:28:44;;;;;;;22.38;4.18;;;9.10;88.10;;;;;;5047016;28;20386;-74
2023/01/30 10:31:13;;;;;;;17.30;4.28;;;9.10;89.70;;;;;;5043671;28;20063;-73
2023/01/30 10:33:56;;;;;;;22.25;4.00;;;9.10;89.40;;;;;;5045691;28;20527;-73
2023/01/30 10:36:52;;;;;;;19.42;4.32;;;9.10;91.10;;;;;;5045791;28;20059;-72
2023/01/30 10:39:40;;;;;;;23.15;4.72;;;9.10;90.20;;;;;;5047784;28;20078;-73
2023/01/30 10:42:18;;;;;;;29.48;5.07;;;9.10;90.50;;;;;;5046351;28;20052;-72
2023/01/30 10:44:44;;;;;;;20.75;4.47;;;9.00;90.20;;;;;;5043339;28;20020;-73
2023/01/30 10:47:40;;;;;;;19.70;3.30;;;9.00;90.30;;;;;;5046863;28;20017;-72
2023/01/30 10:51:07;;;;;;;21.67;3.53;;;9.00;91.00;;;;;;5043600;28;20434;-72
2023/01/30 10:53:48;;;;;;;19.60;4.22;;;9.00;91.10;;;;;;5015841;28;20049;-73
2023/01/30 10:57:03;;;;;;;17.15;3.55;;;9.00;91.00;;;;;;5012085;28;20029;-73
2023/01/30 10:59:42;;;;;;;17.40;4.18;;;9.10;91.10;;;;;;5033622;28;20033;-73
2023/01/30 11:02:46;;;;;;;23.60;4.75;;;9.10;90.80;;;;;;5047572;28;20173;-73
2023/01/30 11:05:18;;;;;;;15.70;3.90;;;9.10;90.20;;;;;;5061518;28;20138;-72
2023/01/30 11:07:45;;;;;;;16.83;4.10;;;9.10;90.00;;;;;;5050195;28;20033;-72
2023/01/30 11:10:16;;;;;;;19.85;3.60;;;9.10;90.00;;;;;;5046615;28;20479;-72
2023/01/30 11:12:42;;;;;;;23.30;3.42;;;9.10;87.80;;;;;;5045729;28;20076;-72
2023/01/30 11:15:09;;;;;;;20.15;4.28;;;9.10;88.70;;;;;;5052704;28;20067;-72
2023/01/30 11:17:37;;;;;;;23.63;4.75;;;9.20;89.20;;;;;;5036091;28;20131;-74
2023/01/30 11:20:19;;;;;;;15.45;3.03;;;9.40;90.30;;;;;;5036574;28;20079;-72
2023/01/30 11:23:05;;;;;;;27.73;4.47;;;9.60;90.40;;;;;;5042862;28;20051;-73
2023/01/30 11:25:45;;;;;;;27.05;5.05;;;9.80;89.80;;;;;;5039511;28;20075;-73
2023/01/30 11:28:13;;;;;;;25.33;5.82;;;10.00;88.20;;;;;;5036148;28;20104;-73
2023/01/30 11:30:40;;;;;;;21.48;4.15;;;10.00;86.30;;;;;;5038225;28;20013;-72
2023/01/30 11:33:15;;;;;;;13.13;3.72;;;10.10;85.10;;;;;;5042800;28;20069;-73
2023/01/30 11:36:03;;;;;;;15.90;3.13;;;10.00;88.00;;;;;;5045956;28;20111;-72
2023/01/30 11:38:39;;;;;;;20.85;4.00;;;10.20;85.70;;;;;;5046949;28;20049;-73
2023/01/30 11:41:08;;;;;;;13.30;3.08;;;10.30;84.90;;;;;;5046866;28;20378;-72
2023/01/30 11:43:36;;;;;;;27.10;5.20;;;10.30;87.20;;;;;;5047891;28;20035;-73
2023/01/30 11:46:02;;;;;;;22.05;3.72;;;10.30;84.50;;;;;;5036014;28;20032;-72
2023/01/30 11:48:31;;;;;;;19.90;3.72;;;10.30;84.20;;;;;;5046714;28;20543;-72
2023/01/30 11:51:09;;;;;;;16.17;3.20;;;10.40;82.80;;;;;;5045170;28;20025;-72
2023/01/30 11:53:43;;;;;;;21.90;4.57;;;10.60;81.70;;;;;;5056667;28;20041;-72
2023/01/30 11:56:30;;;;;;;29.85;4.55;;;10.80;80.00;;;;;;5048413;28;20083;-71
2023/01/30 11:59:00;;;;;;;22.65;3.75;;;10.70;77.90;;;;;;5051103;28;20020;-72
2023/01/30 12:01:29;;;;;;;22.10;4.82;;;10.70;80.40;;;;;;5050651;28;20536;-73
2023/01/30 12:03:56;;;;;;;19.30;3.55;;;10.90;80.90;;;;;;5040464;28;20021;-71
2023/01/30 12:06:34;;;;;;;20.85;4.30;;;11.00;81.50;;;;;;5045728;28;20025;-73
2023/01/30 12:09:00;;;;;;;25.40;4.78;;;11.00;77.60;;;;;;5042354;28;20025;-74
2023/01/30 12:11:43;;;;;;;26.48;5.60;;;11.10;77.60;;;;;;5047729;28;20028;-72
2023/01/30 12:14:37;;;;;;;18.40;3.55;;;11.00;78.20;;;;;;5050522;28;20066;-72
2023/01/30 12:17:20;;;;;;;25.73;4.53;;;10.90;78.70;;;;;;5050805;28;20119;-72
2023/01/30 12:19:56;;;;;;;19.60;4.25;;;10.90;78.30;;;;;;5041492;28;20049;-72
2023/01/30 12:22:37;;;;;;;20.83;4.50;;;10.90;76.30;;;;;;5044728;28;20061;-73
2023/01/30 12:25:22;;;;;;;24.15;4.32;;;10.70;76.60;;;;;;5035488;28;20108;-72
2023/01/30 12:28:35;;;;;;;18.08;3.67;;;10.70;78.60;;;;;;5045757;28;20491;-72
2023/01/30 12:31:23;;;;;;;18.48;3.63;;;10.60;78.70;;;;;;5043645;28;20507;-71
2023/01/30 12:33:49;;;;;;;16.80;4.18;;;10.50;80.90;;;;;;5045976;28;20041;-71
2023/01/30 12:36:39;;;;;;;23.27;4.30;;;10.50;84.20;;;;;;5046806;28;20025;-73
2023/01/30 12:39:13;;;;;;;;;;;10.30;79.00;;;;;;5048341;28;20029;-72
2023/01/30 12:41:42;;;;;;;19.77;4.30;;;10.30;79.50;;;;;;5044450;28;19912;-73
2023/01/30 12:44:31;;;;;;;14.13;3.13;;;10.40;85.50;;;;;;5045249;28;20021;-72
2023/01/30 12:47:15;;;;;;;25.40;3.80;;;10.30;82.60;;;;;;5047340;28;20549;-73
2023/01/30 12:50:08;;;;;;;22.05;4.07;;;10.20;79.50;;;;;;5045225;28;20025;-72
2023/01/30 12:52:56;;;;;;;22.73;3.83;;;10.10;76.90;;;;;;5048786;28;20025;-74
2023/01/30 12:55:44;;;;;;;29.00;5.68;;;10.10;79.00;;;;;;5033291;28;20025;-74
2023/01/30 12:58:19;;;;;;;22.27;3.83;;;10.20;78.60;;;;;;5042857;28;20017;-73
2023/01/30 13:01:03;;;;;;;18.58;4.65;;;10.10;79.40;;;;;;5041189;28;20501;-73
2023/01/30 13:03:58;;;;;;;22.90;4.78;;;10.20;82.40;;;;;;5043000;28;20112;-73
2023/01/30 13:06:54;;;;;;;19.83;3.60;;;10.30;86.50;;;;;;5038945;28;20055;-73
2023/01/30 13:09:51;;;;;;;18.08;3.70;;;10.10;78.30;;;;;;5051712;28;20075;-74